Tiempo atmosférico en la estación meteorológica de Alcañices, Zamora (840 m.)



Fecha
DESCASC
Temp. máxima en grados centígrados (hora)
DESCASC
Temp. mínima en grados centígrados (hora)
DESCASC
Temp. media en grados centígrados
DESCASC
Racha de viento máxima en m/sg (hora)
DESCASC
Velocidad máxima media en intervalos de 10 minutos(hora)
DESCASC
Precipitaciones diarias en mm
DESCASC
Precipitaciones de 00:00 a 06:00 en mm
DESCASC
Precipitaciones de 06:00 a 12:00 en mm
DESCASC
Precipitaciones de 12:00 a 18:00 en mm
DESCASC
Precipitaciones de 18:00 a 24:00 en mm
DESCASC
22-11-2020 16.6 (15:10) 2.2 (05:40) 9.4 4.17 (14:10) 2.5 (17:50) 0 0 0 0 0
21-11-2020 16.9 (14:40) 3.1 (06:20) 10 9.17 (04:00) 6.94 (04:00) 0 0 0 0 0
20-11-2020 12.5 (15:10) 5.2 (08:20) 8.8 10.83 (12:30) 7.5 (11:20) 0 0 0 0 0
19-11-2020 19.2 (15:20) 5.9 (00:00) 12.6 8.89 (11:50) 5.83 (11:50) 0 0 0 0 0
18-11-2020 19.8 (15:20) 7 (00:00) 13.4 3.89 (13:20) 2.78 (10:30) 0 0 0 0 0
17-11-2020 19.1 (15:40) 3.2 (00:00) 11.2 4.72 (12:30) 3.06 (06:10) 0 0 0 0 0
16-11-2020 18 (15:20) 6.1 (00:00) 12 8.61 (01:00) 5.28 (00:50) 0 0 0 0 0
15-11-2020 14.6 (14:40) 11.4 (00:00) 13 14.72 (10:50) 9.72 (11:40) 12.6 3.2 0 3.2 6.2
14-11-2020 12.4 (12:40) 4 (00:00) 8.2 8.61 (23:30) 5.28 (21:30) 0.6 0 0.2 0.4 0
13-11-2020 15.5 (15:00) 3.4 (00:00) 9.5 4.72 (15:30) 3.33 (19:10) 0 0 0 0 0
12-11-2020 12 (15:00) 2.9 (00:00) 7.5 3.89 (18:30) 3.06 (18:30) 0 0 0 0 0
11-11-2020 12.6 (14:10) 5.8 (00:00) 9.2 7.22 (14:40) 4.72 (15:30) 0 0 0 0 0
10-11-2020 9.7 (13:20) 2.7 (00:00) 6.2 6.11 (23:00) 4.17 (23:00) 0 0 0 0 0
09-11-2020 13.8 (15:30) 7.1 (00:00) 10.5 6.67 (07:40) 4.44 (16:10) 0.2 0 0.2 0 0
08-11-2020 11.8 (16:10) 8.5 (00:00) 10.2 10 (16:20) 6.39 (16:20) 14.4 0.2 8.8 3.8 1.6
07-11-2020 14.2 (16:40) 9.2 (00:00) 11.7 10.56 (12:20) 6.39 (12:30) 2 1.6 0.4 0 0
06-11-2020 15.1 (17:20) 7.9 (00:00) 11.5 14.72 (20:40) 8.89 (12:50) 1.2 0.8 0 0 0.4
05-11-2020 11.1 (16:30) 4.9 (00:00) 8 15.83 (00:30) 10.56 (05:40) 3.6 0 0.6 0.2 2.8
04-11-2020 9.8 (15:50) 2.6 (00:00) 6.2 18.61 (18:30) 12.5 (18:50) 0.2 0 0 0 0.2
03-11-2020 16.1 (14:50) 3.5 (00:00) 9.8 10.56 (13:40) 6.94 (11:20) 0 0 0 0 0
02-11-2020 17.6 (16:10) 11.8 (00:00) 14.7 7.78 (05:40) 5 (02:20) 0 0 0 0 0
01-11-2020 15.3 (15:50) 10 (00:00) 12.7 6.11 (21:30) 4.17 (23:10) 0 0 0 0 0
31-10-2020 17.9 (15:30) 6.1 (00:00) 12 8.89 (13:30) 6.11 (13:30) 0 0 0 0 0
30-10-2020 20.1 (16:20) 5.3 (00:00) 12.7 6.67 (16:50) 4.44 (16:50) 0 0 0 0 0
29-10-2020 15.9 (17:40) 2.4 (00:00) 9.1 4.44 (14:20) 2.5 (14:20) 0 0 0 0 0
28-10-2020 14.7 (15:40) 6.7 (00:00) 10.7 9.72 (15:50) 5.83 (15:50) 1.4 1.2 0.2 0 0

Gráficas

Temp. máximas Temp. mínimas Temp. medias Precipitaciones Rachas de viento máximas Velocidades máximas media en intervalos de 10 minutos

Datos horarios

Fecha y hora oficial Temperatura (ºC) Velocidad del viento (km/h) Dirección del viento Racha (km/h) Dirección de racha Precipitación (mm) Presión (hPa) Tendencia (hPa) Humedad (%)
2020-11-26 23:00:00 7.6 19 Este 30 Este 0.2 -- -- 97
2020-11-26 22:00:00 8.1 19 Este 34 Este 0.8 -- -- 96
2020-11-26 21:00:00 8.2 20 Nordeste 30 Nordeste 0.2 -- -- 95
2020-11-26 20:00:00 8.4 19 Nordeste 33 Nordeste 0 -- -- 94
2020-11-26 19:00:00 8.3 18 Nordeste 26 Nordeste 0.2 -- -- 95
2020-11-26 18:00:00 8 14 Nordeste 27 Nordeste 0.2 -- -- 97
2020-11-26 17:00:00 8 19 Nordeste 32 Nordeste 0.2 -- -- 96
2020-11-26 16:00:00 9.2 22 Nordeste 31 Nordeste 0 -- -- 89
2020-11-26 15:00:00 9.3 20 Nordeste 30 Este 0 -- -- 92
2020-11-26 14:00:00 9.1 19 Este 30 Este 0 -- -- 91
2020-11-26 13:00:00 8.9 15 Este 30 Este 0 -- -- 94
2020-11-26 12:00:00 8.2 21 Este 30 Este 0.2 -- -- 96
2020-11-26 11:00:00 7.8 20 Este 29 Este 0 -- -- 94
2020-11-26 10:00:00 7.1 20 Este 32 Este 0 -- -- 96
2020-11-26 09:00:00 6.8 20 Este 35 Este 0 -- -- 98
2020-11-26 08:00:00 6.5 17 Este 25 Este 0 -- -- 99
2020-11-26 07:00:00 6.5 15 Este 24 Este 0 -- -- 100
2020-11-26 06:00:00 6.8 11 Nordeste 17 Nordeste 0.2 -- -- 100
2020-11-26 05:00:00 6.8 13 Nordeste 19 Este 0.2 -- -- 100
2020-11-26 04:00:00 6.8 12 Este 16 Este 0.6 -- -- 100
2020-11-26 03:00:00 6.7 12 Nordeste 14 Nordeste 0 -- -- 100
2020-11-26 02:00:00 6.9 12 Este 20 Este 0 -- -- 99
2020-11-26 01:00:00 6.9 14 Este 20 Este 0 -- -- 99
2020-11-26 00:00:00 6.9 14 Este 22 Este 0 -- -- 100
2020-11-25 23:00:00 6.8 16 Este 21 Este 0.2 -- -- 100
2020-11-25 22:00:00 6.6 15 Este 20 Nordeste 0.2 -- -- 100
2020-11-25 21:00:00 6.4 15 Este 21 Nordeste 0.4 -- -- 100
2020-11-25 20:00:00 6.2 14 Nordeste 27 Nordeste 0 -- -- 100
2020-11-25 19:00:00 6 21 Nordeste 29 Este 0.4 -- -- 100
2020-11-25 18:00:00 5.9 18 Este 26 Este 0.6 -- -- 100
2020-11-25 17:00:00 5.8 17 Nordeste 26 Este 0.2 -- -- 100
2020-11-25 16:00:00 5.5 18 Nordeste 23 Nordeste 0.8 -- -- 100
2020-11-25 15:00:00 5.5 15 Nordeste 21 Este 1.6 -- -- 100
2020-11-25 14:00:00 5.7 10 Este 23 Este 3.4 -- -- 100
2020-11-25 13:00:00 5.9 13 Este 21 Este 2 -- -- 100
2020-11-25 12:00:00 5.4 14 Este 20 Este 1.6 -- -- 100
2020-11-25 11:00:00 5.4 14 Este 19 Este 1.8 -- -- 100
2020-11-25 10:00:00 5.5 8 Este 14 Sudeste 1.6 -- -- 100
2020-11-25 09:00:00 5.2 9 Sudeste 14 Este 1.8 -- -- 100
2020-11-25 08:00:00 5.3 9 Sudeste 15 Sudeste 0.8 -- -- 100
2020-11-25 07:00:00 5.6 9 Sudeste 13 Sudeste 1 -- -- 100
2020-11-25 06:00:00 6 7 Sudeste 15 Sur 1.2 -- -- 100
2020-11-25 05:00:00 6.2 11 Sur 18 Sur 0.4 -- -- 98
2020-11-25 04:00:00 6.2 11 Sur 19 Sur 0 -- -- 97
2020-11-25 03:00:00 5.7 15 Sudoeste 28 Sur 0 -- -- 97
2020-11-25 02:00:00 5.8 18 Sur 28 Sur 0 -- -- 96
2020-11-25 01:00:00 5.3 16 Sur 26 Sur 0 -- -- 98
2020-11-25 00:00:00 5.5 17 Sur 24 Sur 0 -- -- 97
2020-11-24 23:00:00 5.3 14 Sur 23 Sur 0 -- -- 96
2020-11-24 22:00:00 6.3 15 Sur 24 Sur 0 -- -- 93
2020-11-24 21:00:00 7.5 13 Sur 28 Sur 0 -- -- 91
2020-11-24 20:00:00 5.9 4 Sur 7 Sur 0 -- -- 97
2020-11-24 19:00:00 5.7 4 Sur 6 Oeste 0 -- -- 96
2020-11-24 18:00:00 7.9 5 Sudoeste 19 Sudoeste 0 -- -- 88
2020-11-24 17:00:00 9.7 13 Sudoeste 31 Sudoeste 0 -- -- 81
2020-11-24 16:00:00 9.7 20 Sudoeste 30 Sudoeste 0 -- -- 78
2020-11-24 15:00:00 9.9 17 Sudoeste 26 Sudoeste 0 -- -- 77
2020-11-24 14:00:00 10.4 13 Sudoeste 21 Sudoeste 0 -- -- 75
2020-11-24 13:00:00 8.9 14 Sudoeste 21 Sudoeste 0 -- -- 82
2020-11-24 12:00:00 7.4 11 Sudoeste 15 Sudoeste 0 -- -- 87
2020-11-24 11:00:00 6.6 9 Sudoeste 13 Sudoeste 0 -- -- 86
2020-11-24 10:00:00 5.2 9 Sur 10 Sur 0 -- -- 93
2020-11-24 09:00:00 3.5 5 Sur 6 Sudoeste 0 -- -- 85
2020-11-24 08:00:00 3.5 3 Sudeste 5 Sur 0 -- -- 82
2020-11-24 07:00:00 3.5 2 Sudeste 5 Sur 0 -- -- 86
2020-11-24 06:00:00 3.3 4 Sudeste 8 Sur 0 -- -- 88
2020-11-24 05:00:00 4.6 5 Sur 8 Sur 0 -- -- 86
2020-11-24 04:00:00 4.6 3 Nordeste 5 Este 0 -- -- 89
2020-11-24 03:00:00 5.4 2 Este 3 Sudeste 0 -- -- 83
2020-11-24 02:00:00 5.3 3 Este 5 Nordeste 0 -- -- 86
2020-11-24 01:00:00 4.8 4 Este 6 Nordeste 0 -- -- 88
2020-11-24 00:00:00 6.9 3 Este -- -- 0 -- -- 79
2020-11-23 23:00:00 5.5 4 Este 6 Nordeste 0 -- -- 87
2020-11-23 22:00:00 6.2 5 Nordeste 6 Nordeste 0 -- -- 81
2020-11-23 21:00:00 7.3 5 Este 6 Este 0 -- -- 75
2020-11-23 20:00:00 7.7 5 Este 8 Sudeste 0 -- -- 74
2020-11-23 19:00:00 8.3 5 Sudeste 8 Sudeste 0 -- -- 71
2020-11-23 18:00:00 9.3 5 Sudeste 10 Sudeste 0 -- -- 68
2020-11-23 17:00:00 12.7 9 Sudeste 12 Sudeste 0 -- -- 56
2020-11-23 16:00:00 16.3 5 Este 13 Este 0 -- -- 47
2020-11-23 15:00:00 15.3 6 Sudeste 13 Este 0 -- -- 50
2020-11-23 14:00:00 16.1 6 Este 13 Este 0 -- -- 50
2020-11-23 13:00:00 14.1 9 Este 14 Este 0 -- -- 55
2020-11-23 12:00:00 13.1 9 Este 15 Este 0 -- -- 62
2020-11-23 11:00:00 11.5 5 Nordeste 8 Nordeste 0 -- -- 69
2020-11-23 10:00:00 6.3 7 Nordeste 13 Nordeste 0 -- -- 86
2020-11-23 09:00:00 4.3 11 Nordeste 16 Nordeste 0 -- -- 91
2020-11-23 08:00:00 2.4 14 Nordeste 15 Nordeste 0 -- -- 97
2020-11-23 07:00:00 1.3 7 Nordeste 12 Nordeste 0 -- -- 97
2020-11-23 06:00:00 2.5 11 Nordeste 13 Nordeste 0 -- -- 96
2020-11-23 05:00:00 3.4 11 Nordeste 13 Nordeste 0 -- -- 94
2020-11-23 04:00:00 3.7 8 Nordeste 10 Este 0 -- -- 92
2020-11-23 03:00:00 3.5 10 Este 13 Nordeste 0 -- -- 92
2020-11-23 02:00:00 3.9 8 Nordeste 10 Nordeste 0 -- -- 91
2020-11-23 01:00:00 6.6 4 Nordeste 6 Nordeste 0 -- -- 80
2020-11-23 00:00:00 5.7 5 Nordeste 8 Nordeste 0 -- -- 85
2020-11-22 23:00:00 5.8 8 Nordeste 8 Nordeste 0 -- -- 85
2020-11-22 22:00:00 7.5 0 Calma 4 Nordeste 0 -- -- 78
2020-11-22 21:00:00 7.6 2 Oeste 4 Noroeste 0 -- -- 79
2020-11-22 20:00:00 7.6 4 Noroeste 5 Noroeste 0 -- -- 81
2020-11-22 19:00:00 8.7 4 Noroeste 10 Oeste 0 -- -- 74
2020-11-22 18:00:00 11.6 8 Oeste 10 Sudoeste 0 -- -- 61
2020-11-22 17:00:00 15.7 5 Sudoeste 12 Sudoeste 0 -- -- 46
2020-11-22 16:00:00 16.2 6 Sudoeste 13 Sudoeste 0 -- -- 47
2020-11-22 15:00:00 16.2 7 Sudoeste 15 Sudoeste 0 -- -- 43
2020-11-22 14:00:00 15.2 8 Sudoeste 13 Sudoeste 0 -- -- 47
2020-11-22 13:00:00 14.7 6 Sur 12 Sur 0 -- -- 47
2020-11-22 12:00:00 13.5 7 Sudoeste 11 Sudoeste 0 -- -- 49
2020-11-22 11:00:00 13.3 4 Sudeste 8 Sudeste 0 -- -- 51
2020-11-22 10:00:00 8.7 5 Este 9 Este 0 -- -- 59
2020-11-22 09:00:00 5.9 3 Nordeste 8 Nordeste 0 -- -- 62
2020-11-22 08:00:00 2.5 4 Este 5 Nordeste 0 -- -- 73
2020-11-22 07:00:00 4.3 0 Calma 3 Sur 0 -- -- 63
2020-11-22 06:00:00 3.9 0 Calma 4 Sudeste 0 -- -- 65
2020-11-22 05:00:00 4 3 Sudeste 6 Sudeste 0 -- -- 65
2020-11-22 04:00:00 5.8 4 Este 9 Este 0 -- -- 59
2020-11-22 03:00:00 4.7 6 Este -- -- 0 -- -- 64
2020-11-22 02:00:00 5.9 5 Nordeste 6 Nordeste 0 -- -- 59
2020-11-22 01:00:00 5.9 3 Noroeste 6 Noroeste 0 -- -- 59
2020-11-22 00:00:00 5.3 5 Noroeste 8 Noroeste 0 -- -- 62
2020-11-21 23:00:00 6.4 3 Oeste 8 Sudoeste 0 -- -- 60
2020-11-21 22:00:00 5.6 0 Calma 3 Este 0 -- -- 65
2020-11-21 21:00:00 6.4 0 Calma 11 Nordeste 0 -- -- 60
2020-11-21 20:00:00 7.9 12 Nordeste 13 Nordeste 0 -- -- 56
2020-11-21 19:00:00 9 9 Este 11 Este 0 -- -- 51
2020-11-21 18:00:00 10.4 10 Este 15 Este 0 -- -- 56
2020-11-21 17:00:00 15.2 13 Este 18 Este 0 -- -- 40
2020-11-21 16:00:00 16.7 10 Este 19 Este 0 -- -- 34
2020-11-21 15:00:00 16.6 12 Nordeste 19 Nordeste 0 -- -- 31
2020-11-21 14:00:00 16.2 10 Nordeste 22 Nordeste 0 -- -- 30
2020-11-21 13:00:00 15 16 Este 30 Este 0 -- -- 32
2020-11-21 12:00:00 13.8 21 Este 32 Este 0 -- -- 31
2020-11-21 11:00:00 12 19 Nordeste 30 Nordeste 0 -- -- 39
2020-11-21 10:00:00 9.4 10 Nordeste 27 Nordeste 0 -- -- 46
2020-11-21 09:00:00 6.1 20 Nordeste 26 Nordeste 0 -- -- 49
2020-11-21 08:00:00 4.3 20 Nordeste 28 Nordeste 0 -- -- 56
2020-11-21 07:00:00 3.6 14 Nordeste 18 Nordeste 0 -- -- 62
2020-11-21 06:00:00 4.1 14 Nordeste 28 Nordeste 0 -- -- 59
2020-11-21 05:00:00 4.5 23 Nordeste 32 Nordeste 0 -- -- 60
2020-11-21 04:00:00 4.9 25 Nordeste 33 Nordeste 0 -- -- 60
2020-11-21 03:00:00 3.7 19 Nordeste 26 Nordeste 0 -- -- 81
2020-11-21 02:00:00 4 18 Nordeste 28 Nordeste 0 -- -- 88
2020-11-21 01:00:00 4.3 21 Nordeste 27 Nordeste 0 -- -- 88
2020-11-21 00:00:00 5.2 19 Nordeste 28 Este 0 -- -- 84
2020-11-20 23:00:00 5.8 17 Nordeste 23 Nordeste 0 -- -- 80
2020-11-20 22:00:00 6.3 15 Nordeste 26 Nordeste 0 -- -- 79
2020-11-20 21:00:00 6.5 18 Nordeste 27 Nordeste 0 -- -- 82
2020-11-20 20:00:00 6 15 Nordeste 19 Nordeste 0 -- -- 85
2020-11-20 19:00:00 7 14 Nordeste 18 Nordeste 0 -- -- 83
2020-11-20 18:00:00 8.5 15 Nordeste 26 Este 0 -- -- 77
2020-11-20 17:00:00 11.1 21 Nordeste 29 Nordeste 0 -- -- 66
2020-11-20 16:00:00 11.6 22 Nordeste 32 Nordeste 0 -- -- 63
2020-11-20 15:00:00 12.3 20 Nordeste 30 Este 0 -- -- 59
2020-11-20 14:00:00 11.6 22 Nordeste 34 Nordeste 0 -- -- 61
2020-11-20 13:00:00 11 20 Nordeste 39 Este 0 -- -- 66
2020-11-20 12:00:00 9.4 26 Nordeste 37 Nordeste 0 -- -- 74
2020-11-20 11:00:00 7.5 24 Nordeste 32 Este 0 -- -- 84
2020-11-20 10:00:00 6 19 Nordeste 28 Nordeste 0 -- -- 90
2020-11-20 09:00:00 5.3 16 Este 30 Nordeste 0 -- -- 93
2020-11-20 08:00:00 5.6 19 Nordeste 30 Este 0 -- -- 91
2020-11-20 07:00:00 5.9 19 Nordeste 28 Este 0 -- -- 92
2020-11-20 06:00:00 6.3 16 Nordeste 28 Este 0 -- -- 95
2020-11-20 05:00:00 6.6 14 Nordeste 20 Nordeste 0 -- -- 95
2020-11-20 04:00:00 6.3 15 Nordeste 22 Nordeste 0 -- -- 96
2020-11-20 03:00:00 7.4 16 Nordeste 26 Nordeste 0 -- -- 94
2020-11-20 02:00:00 7.5 17 Nordeste 28 Nordeste 0 -- -- 97
2020-11-20 01:00:00 7.7 18 Nordeste 25 Nordeste 0 -- -- 98
2020-11-20 00:00:00 7.5 17 Nordeste 23 Nordeste 0 -- -- 99
2020-11-19 23:00:00 8.4 18 Este 22 Nordeste 0 -- -- 98
2020-11-19 22:00:00 9.4 17 Nordeste 20 Nordeste 0 -- -- 97
2020-11-19 21:00:00 9.9 11 Nordeste 14 Nordeste 0 -- -- 96
2020-11-19 20:00:00 10.2 13 Este 14 Este 0 -- -- 95
2020-11-19 19:00:00 10.7 11 Este 13 Este 0 -- -- 91
2020-11-19 18:00:00 12.9 8 Este 12 Este 0 -- -- 84
2020-11-19 17:00:00 18.1 5 Este 14 Sudeste 0 -- -- 63
2020-11-19 16:00:00 18.7 5 Sudeste 12 Este 0 -- -- 60
2020-11-19 15:00:00 18.8 7 Este 16 Sudeste 0 -- -- 60
2020-11-19 14:00:00 17.5 10 Este 23 Este 0 -- -- 64
2020-11-19 13:00:00 16.6 14 Este 26 Este 0 -- -- 71
2020-11-19 12:00:00 15.3 19 Este 32 Este 0 -- -- 76
2020-11-19 11:00:00 13.2 19 Este 24 Nordeste 0 -- -- 81
2020-11-19 10:00:00 11.1 13 Nordeste 16 Nordeste 0 -- -- 92
2020-11-19 09:00:00 7.8 12 Nordeste 16 Este 0 -- -- 100
2020-11-19 08:00:00 6.3 13 Este 15 Este 0 -- -- 100
2020-11-19 07:00:00 6.7 14 Nordeste 15 Nordeste 0 -- -- 100
2020-11-19 06:00:00 7.1 12 Nordeste 13 Nordeste 0 -- -- 100
2020-11-19 05:00:00 7.6 5 Nordeste 12 Nordeste 0 -- -- 100
2020-11-19 04:00:00 8.1 12 Nordeste 13 Nordeste 0 -- -- 99
2020-11-19 03:00:00 7.1 7 Este 11 Este 0 -- -- 99
2020-11-19 02:00:00 9.3 8 Nordeste 12 Este 0 -- -- 96
2020-11-19 01:00:00 9.7 9 Este 13 Nordeste 0 -- -- 95
2020-11-19 00:00:00 9.2 5 Este 9 Nordeste 0 -- -- 100
2020-11-18 23:00:00 9.4 5 Nordeste 8 Nordeste 0 -- -- 99
2020-11-18 22:00:00 9.8 4 Nordeste 8 Nordeste 0 -- -- 98
2020-11-18 21:00:00 10.6 6 Nordeste 8 Nordeste 0 -- -- 93
2020-11-18 20:00:00 12.5 4 Sudeste 6 Este 0 -- -- 85
2020-11-18 19:00:00 13.5 0 Calma 5 Sur 0 -- -- 79
2020-11-18 18:00:00 14.8 0 Calma 9 Sudoeste 0 -- -- 74
2020-11-18 17:00:00 18.6 6 Sudoeste 11 Sur 0 -- -- 59
2020-11-18 16:00:00 19.1 8 Sur 13 Sudoeste 0 -- -- 55
2020-11-18 15:00:00 18.1 2 Oeste 11 Sudoeste 0 -- -- 61
2020-11-18 14:00:00 17.4 7 Sur 14 Sudoeste 0 -- -- 64
2020-11-18 13:00:00 19.2 3 Oeste 9 Este 0 -- -- 62
2020-11-18 12:00:00 15.2 8 Este 13 Este 0 -- -- 75
2020-11-18 11:00:00 12.9 9 Nordeste 13 Nordeste 0 -- -- 84
2020-11-18 10:00:00 11.1 7 Nordeste 10 Nordeste 0 -- -- 94
2020-11-18 09:00:00 8.1 7 Este 10 Este 0 -- -- 100
2020-11-18 08:00:00 7 7 Este 9 Este 0 -- -- 100
2020-11-18 07:00:00 8 4 Este 7 Sudoeste 0 -- -- 100
2020-11-18 06:00:00 8.6 4 Sur 10 Sudoeste 0 -- -- 98
2020-11-18 05:00:00 9.9 8 Sudoeste 11 Sudoeste 0 -- -- 94
2020-11-18 04:00:00 10.2 5 Sudoeste 10 Sudoeste 0 -- -- 90
2020-11-18 03:00:00 9.6 5 Sudeste 6 Sur 0 -- -- 91
2020-11-18 02:00:00 9.1 0 Calma 10 Sudoeste 0 -- -- 87
2020-11-18 01:00:00 9.6 5 Sur 9 Sudoeste 0 -- -- 83
2020-11-18 00:00:00 8.7 6 Sur 9 Sur 0 -- -- 90
2020-11-17 23:00:00 7.9 3 Este 9 Este 0 -- -- 99
2020-11-17 22:00:00 8.5 8 Este 12 Este 0 -- -- 96
2020-11-17 21:00:00 8.4 7 Este 10 Este 0 -- -- 96
2020-11-17 20:00:00 8.9 7 Este 9 Este 0 -- -- 98
2020-11-17 19:00:00 10.7 6 Este 9 Sudeste 0 -- -- 92
2020-11-17 18:00:00 13.7 7 Sudeste 9 Este 0 -- -- 75
2020-11-17 17:00:00 18.4 5 Sur 12 Sur 0 -- -- 54
2020-11-17 16:00:00 18.8 6 Sur 13 Este 0 -- -- 50
2020-11-17 15:00:00 18.6 6 Este 13 Sudeste 0 -- -- 52
2020-11-17 14:00:00 17.6 5 Nordeste 13 Nordeste 0 -- -- 61
2020-11-17 13:00:00 15.5 9 Este 17 Este 0 -- -- 67
2020-11-17 12:00:00 13.7 10 Este 16 Este 0 -- -- 78
2020-11-17 11:00:00 11.6 9 Nordeste 13 Nordeste 0 -- -- 86
2020-11-17 10:00:00 9 6 Este 13 Este 0 -- -- 93
2020-11-17 09:00:00 5.2 6 Nordeste 9 Nordeste 0 -- -- 100
2020-11-17 08:00:00 3.4 8 Nordeste 11 Nordeste 0 -- -- 100
2020-11-17 07:00:00 4.6 8 Nordeste 12 Nordeste 0 -- -- 100
2020-11-17 06:00:00 4.9 10 Nordeste 12 Nordeste 0 -- -- 100
2020-11-17 05:00:00 4.8 7 Nordeste 10 Nordeste 0 -- -- 100
2020-11-17 04:00:00 4.7 5 Nordeste 8 Nordeste 0 -- -- 100
2020-11-17 03:00:00 5 8 Nordeste 9 Nordeste 0 -- -- 100
2020-11-17 02:00:00 5.6 4 Norte 8 Norte 0 -- -- 100
2020-11-17 01:00:00 6.3 7 Nordeste 9 Nordeste 0 -- -- 100
2020-11-17 00:00:00 6.1 9 Nordeste 11 Nordeste 0 -- -- 100
2020-11-16 23:00:00 6.2 6 Nordeste 9 Nordeste 0 -- -- 100
2020-11-16 22:00:00 7.8 4 Nordeste 9 Este 0 -- -- 95
2020-11-16 21:00:00 7.7 8 Este 10 Este 0 -- -- 96
2020-11-16 20:00:00 9.3 0 Calma 5 Este 0 -- -- 92
2020-11-16 19:00:00 10.5 3 Sudeste -- -- 0 -- -- 88
2020-11-16 18:00:00 12.3 5 Nordeste 6 Este 0 -- -- 79
2020-11-16 17:00:00 15.7 3 Este 10 Nordeste 0 -- -- 67
2020-11-16 16:00:00 17.7 5 Nordeste 10 Norte 0 -- -- 59
2020-11-16 15:00:00 15.8 6 Sudeste 13 Nordeste 0 -- -- 65
2020-11-16 14:00:00 15.7 7 Nordeste 14 Sudeste 0 -- -- 67
2020-11-16 13:00:00 15.9 2 Nordeste 8 Nordeste 0 -- -- 70
2020-11-16 12:00:00 12.3 6 Sur 12 Noroeste 0 -- -- 78
2020-11-16 11:00:00 11.4 6 Sur 10 Sur 0 -- -- 91
2020-11-16 10:00:00 10.4 4 Este 9 Sudeste 0 -- -- 100
2020-11-16 09:00:00 7.8 5 Sudeste 11 Nordeste 0 -- -- 100
2020-11-16 08:00:00 8.4 3 Sudoeste 9 Oeste 0 -- -- 100
2020-11-16 07:00:00 9.2 4 Oeste 12 Oeste 0 -- -- 100
2020-11-16 06:00:00 8.3 4 Sudeste 13 Oeste 0 -- -- 100
2020-11-16 05:00:00 9.4 5 Oeste 13 Oeste 0 -- -- 100
2020-11-16 04:00:00 10.4 9 Sudoeste 15 Oeste 0 -- -- 100
2020-11-16 03:00:00 10.3 10 Oeste 18 Oeste 0 -- -- 100
2020-11-16 02:00:00 11.4 9 Oeste 24 Sudoeste 0 -- -- 100
2020-11-16 01:00:00 11.8 18 Sudoeste 31 Sudoeste 0 -- -- 99
2020-11-16 00:00:00 11.5 8 Sudoeste 26 Oeste 0 -- -- 99
2020-11-15 23:00:00 12.1 18 Oeste 28 Oeste 0 -- -- 98
2020-11-15 22:00:00 12.5 15 Oeste 34 Oeste 1.8 -- -- 99
2020-11-15 21:00:00 12.9 14 Oeste 34 Oeste 1.8 -- -- 100
2020-11-15 20:00:00 13 22 Sudoeste 36 Oeste 0.6 -- -- 100
2020-11-15 19:00:00 13.1 14 Sudoeste 29 Sudoeste 2 -- -- 100
2020-11-15 18:00:00 13.2 19 Sudoeste 38 Sudoeste 0.4 -- -- 100
2020-11-15 17:00:00 13.2 17 Sudoeste 31 Sudoeste 2 -- -- 100
2020-11-15 16:00:00 13.4 22 Sudoeste 46 Sudoeste 0.6 -- -- 99
2020-11-15 15:00:00 14.6 31 Sudoeste 51 Sudoeste 0 -- -- 91
2020-11-15 14:00:00 14.3 33 Sudoeste 52 Sudoeste 0 -- -- 92
2020-11-15 13:00:00 13.8 30 Sudoeste 49 Sudoeste 0.2 -- -- 97
2020-11-15 12:00:00 13.6 28 Sudoeste 52 Sudoeste 0 -- -- 97
2020-11-15 11:00:00 13.5 29 Sudoeste 53 Sudoeste 0 -- -- 98
2020-11-15 10:00:00 13.1 25 Sudoeste 46 Sudoeste 0 -- -- 100
2020-11-15 09:00:00 12.9 31 Sudoeste 51 Sudoeste 0 -- -- 100
2020-11-15 08:00:00 12.6 26 Sudoeste 43 Sudoeste 0 -- -- 100
2020-11-15 07:00:00 12.2 20 Sudoeste 36 Sudoeste 0 -- -- 100
2020-11-15 06:00:00 12.3 24 Sudoeste 40 Sudoeste 0 -- -- 100
2020-11-15 05:00:00 12 19 Sudoeste 37 Sudoeste 1.6 -- -- 100
2020-11-15 04:00:00 11.7 15 Sudoeste 29 Sudoeste 1.6 -- -- 100
2020-11-15 03:00:00 11.8 16 Sudoeste 35 Sur 0 -- -- 99
2020-11-15 02:00:00 11.6 18 Sudoeste 36 Sur 0 -- -- 99
2020-11-15 01:00:00 11.6 22 Sur 40 Sudoeste 0 -- -- 98
2020-11-15 00:00:00 11.6 18 Sudoeste 31 Sudoeste 0 -- -- 98
2020-11-14 23:00:00 11.4 17 Sur 27 Sur 0 -- -- 99
2020-11-14 22:00:00 11.4 15 Sur 30 Sur 0 -- -- 99
2020-11-14 21:00:00 11.9 16 Sudoeste 28 Sudoeste 0 -- -- 98
2020-11-14 20:00:00 12 12 Sudoeste 19 Sudoeste 0 -- -- 99
2020-11-14 19:00:00 12.2 10 Sudoeste 21 Sur 0 -- -- 99
2020-11-14 18:00:00 12.3 9 Sudoeste 14 Sudoeste 0 -- -- 99
2020-11-14 17:00:00 12.2 12 Sudoeste 28 Sudoeste 0 -- -- 99
2020-11-14 16:00:00 11.9 16 Sudoeste 27 Sudoeste 0.2 -- -- 100
2020-11-14 15:00:00 11.5 5 Sudoeste 22 Sur 0.2 -- -- 100
2020-11-14 14:00:00 11.7 16 Sur 28 Sudoeste 0 -- -- 96
2020-11-14 13:00:00 12.2 13 Sudoeste 23 Sur 0 -- -- 95
2020-11-14 12:00:00 10.3 9 Sur 12 Sur 0 -- -- 100
2020-11-14 11:00:00 9.1 5 Sur 10 Sur 0.2 -- -- 100
2020-11-14 10:00:00 8 6 Este 9 Este 0 -- -- 100
2020-11-14 09:00:00 7.7 5 Sudeste 8 Sudeste 0 -- -- 100
2020-11-14 08:00:00 7.2 5 Nordeste 10 Este 0 -- -- 100
2020-11-14 07:00:00 6.6 5 Nordeste 12 Este 0 -- -- 100
2020-11-14 06:00:00 6.3 7 Nordeste 10 Nordeste 0 -- -- 100
2020-11-14 05:00:00 6.2 6 Nordeste 9 Nordeste 0 -- -- 100
2020-11-14 04:00:00 6 6 Nordeste 9 Este 0 -- -- 100
2020-11-14 03:00:00 6 6 Nordeste 9 Nordeste 0 -- -- 100
2020-11-14 02:00:00 5.6 4 Nordeste 10 Nordeste 0 -- -- 100
2020-11-14 01:00:00 4.5 8 Nordeste 11 Este 0 -- -- 100
2020-11-14 00:00:00 4.6 8 Este 10 Este 0 -- -- 100
2020-11-13 23:00:00 4.7 6 Este 9 Este 0 -- -- 100
2020-11-13 22:00:00 5.7 5 Nordeste 10 Este 0 -- -- 100
2020-11-13 21:00:00 6.2 8 Este 10 Este 0 -- -- 100
2020-11-13 20:00:00 7.5 6 Este 15 Sudeste 0 -- -- 100
2020-11-13 19:00:00 7.9 11 Sudeste 13 Sudeste 0 -- -- 97
2020-11-13 18:00:00 11.8 4 Sur 10 Sur 0 -- -- 78
2020-11-13 17:00:00 15.2 5 Sudoeste 14 Sudoeste 0 -- -- 64
2020-11-13 16:00:00 14.9 10 Sur 17 Sudoeste 0 -- -- 66
2020-11-13 15:00:00 15.5 5 Sur 14 Sudoeste 0 -- -- 65
2020-11-13 14:00:00 12.2 4 Nordeste 9 Nordeste 0 -- -- 96
2020-11-13 13:00:00 9.2 6 Nordeste 12 Este 0 -- -- 99
2020-11-13 12:00:00 7.7 8 Este 13 Nordeste 0 -- -- 100
2020-11-13 11:00:00 5.7 9 Este 13 Este 0 -- -- 100
2020-11-13 10:00:00 5.1 10 Este 13 Este 0 -- -- 100
2020-11-13 09:00:00 4.7 8 Este 13 Este 0 -- -- 100
2020-11-13 08:00:00 3.8 6 Nordeste 9 Nordeste 0 -- -- 100
2020-11-13 07:00:00 3.6 6 Nordeste 12 Nordeste 0 -- -- 100
2020-11-13 06:00:00 4.5 9 Nordeste 12 Este 0 -- -- 100
2020-11-13 05:00:00 5.1 8 Este 10 Este 0 -- -- 100
2020-11-13 04:00:00 4.6 6 Nordeste 9 Nordeste 0 -- -- 100
2020-11-13 03:00:00 4.5 5 Nordeste 10 Nordeste 0 -- -- 100
2020-11-13 02:00:00 5.3 8 Nordeste 9 Nordeste 0 -- -- 100
2020-11-13 01:00:00 5.5 4 Norte 8 Nordeste 0 -- -- 100
2020-11-13 00:00:00 6.1 4 Norte 8 Nordeste 0 -- -- 100
2020-11-12 23:00:00 6.5 4 Nordeste 6 Este 0 -- -- 100
2020-11-12 22:00:00 6.7 2 Nordeste 8 Nordeste 0 -- -- 100
2020-11-12 21:00:00 7.4 4 Nordeste 9 Este 0 -- -- 100
2020-11-12 20:00:00 7.6 5 Nordeste 10 Este 0 -- -- 100
2020-11-12 19:00:00 7.9 6 Este 14 Este 0 -- -- 100
2020-11-12 18:00:00 8.4 9 Este 13 Este 0 -- -- 99
2020-11-12 17:00:00 9.8 7 Este 10 Este 0 -- -- 95
2020-11-12 16:00:00 10.5 8 Este 11 Nordeste 0 -- -- 93
2020-11-12 15:00:00 12 7 Este 14 Este 0 -- -- 94
2020-11-12 14:00:00 9.7 8 Nordeste 14 Este 0 -- -- 100
2020-11-12 13:00:00 9.1 8 Nordeste 13 Este 0 -- -- 100
2020-11-12 12:00:00 8.3 9 Este 13 Este 0 -- -- 100
2020-11-12 11:00:00 6.9 7 Nordeste 12 Este 0 -- -- 100
2020-11-12 10:00:00 5.3 7 Nordeste 10 Este 0 -- -- 100
2020-11-12 09:00:00 4.2 8 Este 12 Nordeste 0 -- -- 100
2020-11-12 08:00:00 3 6 Este 11 Nordeste 0 -- -- 100
2020-11-12 07:00:00 3.2 7 Nordeste 9 Nordeste 0 -- -- 100
2020-11-12 06:00:00 3.8 5 Nordeste 8 Nordeste 0 -- -- 100
2020-11-12 05:00:00 3.9 7 Nordeste 11 Nordeste 0 -- -- 100
2020-11-12 04:00:00 4.2 9 Nordeste 10 Nordeste 0 -- -- 100
2020-11-12 03:00:00 5.5 6 Nordeste 6 Nordeste 0 -- -- 100
2020-11-12 02:00:00 5.7 4 Este 8 Nordeste 0 -- -- 100
2020-11-12 01:00:00 7 0 Calma 4 Sur 0 -- -- 100
2020-11-12 00:00:00 7.4 0 Calma 6 Nordeste 0 -- -- 100
2020-11-11 23:00:00 7.7 5 Nordeste 6 Nordeste 0 -- -- 100
2020-11-11 22:00:00 8 5 Sudeste 9 Sudeste 0 -- -- 99
2020-11-11 21:00:00 8.2 3 Sudeste 8 Noroeste 0 -- -- 98
2020-11-11 20:00:00 8.6 0 Calma 6 Sudeste 0 -- -- 94
2020-11-11 19:00:00 8.5 5 Sur 7 Sur 0 -- -- 95
2020-11-11 18:00:00 9.7 6 Oeste 13 Sudoeste 0 -- -- 91
2020-11-11 17:00:00 11.2 10 Sudoeste 17 Sudoeste 0 -- -- 82
2020-11-11 16:00:00 12 13 Sudoeste 24 Oeste 0 -- -- 77
2020-11-11 15:00:00 12.1 14 Sudoeste 26 Sudoeste 0 -- -- 78
2020-11-11 14:00:00 12.3 14 Sur 20 Sudoeste 0 -- -- 77
2020-11-11 13:00:00 11.2 10 Sudoeste 18 Sur 0 -- -- 84
2020-11-11 12:00:00 9.8 9 Sur 14 Sudoeste 0 -- -- 99
2020-11-11 11:00:00 7.5 6 Sudeste 11 Sur 0 -- -- 100
2020-11-11 10:00:00 6.7 5 Este 12 Este 0 -- -- 100
2020-11-11 09:00:00 6.5 9 Este 14 Este 0 -- -- 100
2020-11-11 08:00:00 6.5 8 Nordeste 10 Nordeste 0 -- -- 100
2020-11-11 07:00:00 6.5 9 Este 15 Este 0 -- -- 100
2020-11-11 06:00:00 6.4 9 Este 14 Nordeste 0 -- -- 100
2020-11-11 05:00:00 6.2 11 Este 20 Este 0 -- -- 100
2020-11-11 04:00:00 6.2 14 Este 19 Este 0 -- -- 100
2020-11-11 03:00:00 6.4 10 Nordeste 16 Nordeste 0 -- -- 100
2020-11-11 02:00:00 6.2 10 Este 19 Nordeste 0 -- -- 100
2020-11-11 01:00:00 5.8 13 Este 20 Este 0 -- -- 100
2020-11-11 00:00:00 6 13 Nordeste 22 Este 0 -- -- 100
2020-11-10 23:00:00 5.9 15 Este 22 Este 0 -- -- 100
2020-11-10 22:00:00 5.9 13 Nordeste 19 Nordeste 0 -- -- 100
2020-11-10 21:00:00 6.1 12 Nordeste 19 Este 0 -- -- 100
2020-11-10 20:00:00 6.4 11 Este 19 Este 0 -- -- 100
2020-11-10 19:00:00 6.3 14 Este 19 Nordeste 0 -- -- 100
2020-11-10 18:00:00 6.7 10 Este 15 Este 0 -- -- 100
2020-11-10 17:00:00 7.5 11 Este 14 Nordeste 0 -- -- 99
2020-11-10 16:00:00 8.3 6 Este 13 Este 0 -- -- 97
2020-11-10 15:00:00 8.7 7 Este 15 Sudeste 0 -- -- 96
2020-11-10 14:00:00 8.9 9 Este 15 Nordeste 0 -- -- 98
2020-11-10 13:00:00 9.1 7 Este 17 Este 0 -- -- 98
2020-11-10 12:00:00 8.5 7 Este 13 Sudeste 0 -- -- 100
2020-11-10 11:00:00 7.5 8 Este 12 Este 0 -- -- 100
2020-11-10 10:00:00 7.3 3 Este 5 Este 0 -- -- 99
2020-11-10 09:00:00 4.4 0 Calma 9 Este 0 -- -- 100
2020-11-10 08:00:00 3.7 10 Este 11 Este 0 -- -- 100
2020-11-10 07:00:00 2.9 6 Nordeste 8 Nordeste 0 -- -- 100
2020-11-10 06:00:00 3.3 4 Norte 9 Nordeste 0 -- -- 100
2020-11-10 05:00:00 3.1 3 Norte 6 Noroeste 0 -- -- 100
2020-11-10 04:00:00 3.8 3 Nordeste 5 Nordeste 0 -- -- 100
2020-11-10 03:00:00 4.3 2 Norte 7 Sudoeste 0 -- -- 100
2020-11-10 02:00:00 4.9 3 Noroeste 5 Sudoeste 0 -- -- 100
2020-11-10 01:00:00 6.3 3 Oeste 7 Oeste 0 -- -- 100
2020-11-10 00:00:00 7.7 0 Calma 7 Oeste 0 -- -- 100
2020-11-09 23:00:00 8.1 6 Sudoeste 10 Oeste 0 -- -- 100
2020-11-09 22:00:00 7.8 6 Sudoeste 11 Sudoeste 0 -- -- 100
2020-11-09 21:00:00 8.7 11 Oeste 13 Oeste 0 -- -- 100
2020-11-09 20:00:00 8.5 8 Sudoeste 12 Sudoeste 0 -- -- 98
2020-11-09 19:00:00 8.5 7 Sudoeste 12 Sudoeste 0 -- -- 94
2020-11-09 18:00:00 11.1 9 Sudoeste 18 Sudoeste 0 -- -- 87
2020-11-09 17:00:00 11.2 12 Sudoeste 24 Sudoeste 0 -- -- 92
2020-11-09 16:00:00 12.6 12 Sudoeste 20 Sur 0 -- -- 81
2020-11-09 15:00:00 12.8 13 Sudoeste 22 Sudoeste 0 -- -- 81
2020-11-09 14:00:00 11.3 8 Sudoeste 17 Oeste 0 -- -- 90
2020-11-09 13:00:00 10.6 9 Oeste 19 Sudoeste 0 -- -- 93
2020-11-09 12:00:00 10.4 11 Sudoeste 19 Sudoeste 0 -- -- 98
2020-11-09 11:00:00 9.7 10 Sudoeste 20 Sur 0.2 -- -- 100
2020-11-09 10:00:00 9.2 10 Sur 16 Sur 0 -- -- 100
2020-11-09 09:00:00 9.1 11 Sudoeste 17 Sudoeste 0 -- -- 100
2020-11-09 08:00:00 8.7 13 Sudoeste 24 Sudoeste 0 -- -- 100
2020-11-09 07:00:00 8.5 10 Sur 15 Sudoeste 0 -- -- 100
2020-11-09 06:00:00 8.8 8 Sudoeste 17 Sudoeste 0 -- -- 100
2020-11-09 05:00:00 8.8 11 Sudoeste 17 Sudoeste 0 -- -- 100
2020-11-09 04:00:00 8.9 9 Sur 18 Sudoeste 0 -- -- 100
2020-11-09 03:00:00 8.7 10 Sur 17 Sur 0 -- -- 100
2020-11-09 02:00:00 8.6 10 Sudoeste 19 Sur 0 -- -- 100
2020-11-09 01:00:00 9.1 13 Sur 21 Sur 0 -- -- 100
2020-11-09 00:00:00 9.5 10 Sudoeste 24 Sur 0 -- -- 100
2020-11-08 23:00:00 9.5 12 Sur 22 Sur 0 -- -- 100
2020-11-08 22:00:00 9.8 11 Sur 18 Sur 0 -- -- 100
2020-11-08 21:00:00 9.8 12 Sur 21 Sur 0 -- -- 100
2020-11-08 20:00:00 9.9 15 Sur 27 Sur 0 -- -- 100
2020-11-08 19:00:00 9.9 10 Sur 22 Sur 1.6 -- -- 99
2020-11-08 18:00:00 9.7 13 Sudoeste 31 Sur 0.6 -- -- 99
2020-11-08 17:00:00 10 22 Sur 36 Sur 0 -- -- 96
2020-11-08 16:00:00 11.7 14 Sur 32 Sudeste 0 -- -- 95
2020-11-08 15:00:00 11.1 13 Sur 21 Sur 0.2 -- -- 97
2020-11-08 14:00:00 9.7 4 Noroeste 18 Oeste 1 -- -- 99
2020-11-08 13:00:00 9.7 12 Sur 29 Sur 2 -- -- 98
2020-11-08 12:00:00 10 13 Sudoeste 24 Sur 7.2 -- -- 100
2020-11-08 11:00:00 9.8 15 Sur 28 Sudeste 0.8 -- -- 98
2020-11-08 10:00:00 9.6 19 Sudeste 31 Sudeste 0 -- -- 96
2020-11-08 09:00:00 9 9 Sudeste 14 Sudeste 0 -- -- 99
2020-11-08 08:00:00 8.6 8 Este 13 Sur 0.8 -- -- 99
2020-11-08 07:00:00 9.1 9 Sudeste 16 Sur 0 -- -- 97
2020-11-08 06:00:00 9 10 Sur 21 Sur 0 -- -- 98
2020-11-08 05:00:00 9.8 15 Sur 26 Sur 0 -- -- 95
2020-11-08 04:00:00 10.1 17 Sur 30 Sur 0 -- -- 94
2020-11-08 03:00:00 9.8 12 Sur 17 Sur 0.2 -- -- 96
2020-11-08 02:00:00 9.8 11 Sudeste 14 Sudeste 0 -- -- 94
2020-11-08 01:00:00 9.9 9 Sur 17 Sur 0 -- -- 94
2020-11-08 00:00:00 10.5 15 Sur 21 Sur 0 -- -- 92
2020-11-07 23:00:00 10.2 11 Sur 21 Sur 0 -- -- 95
2020-11-07 22:00:00 10.5 15 Sur 26 Sur 0 -- -- 92
2020-11-07 21:00:00 10.7 14 Sur 22 Sur 0 -- -- 89
2020-11-07 20:00:00 11.5 15 Sudoeste 26 Sudoeste 0 -- -- 81
2020-11-07 19:00:00 11.7 15 Sur 27 Sur 0 -- -- 82
2020-11-07 18:00:00 11.8 18 Sur 26 Sudoeste 0 -- -- 81
2020-11-07 17:00:00 12.5 18 Sur 28 Sur 0 -- -- 76
2020-11-07 16:00:00 12.7 19 Sudoeste 27 Sudoeste 0 -- -- 77
2020-11-07 15:00:00 12.8 18 Sudoeste 30 Sur 0 -- -- 77
2020-11-07 14:00:00 13.4 20 Sudoeste 30 Sudoeste 0 -- -- 76
2020-11-07 13:00:00 12.1 13 Sudoeste 38 Sudoeste 0 -- -- 85
2020-11-07 12:00:00 11.6 18 Sudoeste 29 Sudoeste 0 -- -- 90
2020-11-07 11:00:00 10.2 16 Sudoeste 28 Sudoeste 0 -- -- 97
2020-11-07 10:00:00 9.6 17 Sudoeste 26 Sudoeste 0.2 -- -- 100
2020-11-07 09:00:00 9.3 13 Sudoeste 24 Sudoeste 0 -- -- 100
2020-11-07 08:00:00 9.2 12 Sudoeste 22 Sur 0 -- -- 100
2020-11-07 07:00:00 9.3 14 Sur 30 Sudoeste 0.2 -- -- 100
2020-11-07 06:00:00 9.5 11 Sudeste 18 Sudeste 0.4 -- -- 100
2020-11-07 05:00:00 9.5 9 Este 13 Este 1 -- -- 100
2020-11-07 04:00:00 9.5 5 Este 12 Sudeste 0 -- -- 99
2020-11-07 03:00:00 9.8 10 Sudeste 20 Sudeste 0 -- -- 97
2020-11-07 02:00:00 9.8 10 Sudeste 23 Sudeste 0 -- -- 97
2020-11-07 01:00:00 9.9 14 Sur 24 Sur 0.2 -- -- 96
2020-11-07 00:00:00 9.9 13 Sur 24 Sur 0 -- -- 94
2020-11-06 23:00:00 10.1 15 Sur 32 Sudeste 0.2 -- -- 92
2020-11-06 22:00:00 10.9 21 Sur 50 Sur 0 -- -- 85
2020-11-06 21:00:00 11.6 28 Sur 53 Sur 0 -- -- 83
2020-11-06 20:00:00 13.7 25 Sudeste 42 Sudeste 0.2 -- -- 71
2020-11-06 19:00:00 14.9 26 Sudeste 41 Sudeste 0 -- -- 76
2020-11-06 18:00:00 14.8 22 Este 33 Sudeste 0 -- -- 82
2020-11-06 17:00:00 14.9 17 Este 30 Este 0 -- -- 82
2020-11-06 16:00:00 14.9 22 Este 35 Este 0 -- -- 82
2020-11-06 15:00:00 13.7 23 Este 40 Este 0 -- -- 85
2020-11-06 14:00:00 13.1 31 Este 42 Este 0 -- -- 85
2020-11-06 13:00:00 12.1 26 Este 49 Este 0 -- -- 85
2020-11-06 12:00:00 11.7 27 Este 37 Este 0 -- -- 89
2020-11-06 11:00:00 10.6 19 Este 31 Este 0 -- -- 94
2020-11-06 10:00:00 9.5 12 Nordeste 28 Este 0 -- -- 97
2020-11-06 09:00:00 9.7 20 Este 31 Este 0 -- -- 94
2020-11-06 08:00:00 9.3 19 Este 29 Este 0 -- -- 96
2020-11-06 07:00:00 9 20 Este 24 Este 0 -- -- 93
2020-11-06 06:00:00 8.9 13 Este 21 Este 0 -- -- 97
2020-11-06 05:00:00 8.8 11 Este 25 Sudeste 0 -- -- 98
2020-11-06 04:00:00 9.6 22 Sudeste 40 Sudeste 0.6 -- -- 97
2020-11-06 03:00:00 8.8 25 Este 34 Este 0.2 -- -- 98
2020-11-06 02:00:00 8.7 24 Este 34 Este 0 -- -- 98
2020-11-06 01:00:00 8 17 Nordeste 30 Nordeste 0 -- -- 99
2020-11-06 00:00:00 8.6 19 Este 28 Este 0 -- -- 100
2020-11-05 23:00:00 9.4 20 Este 38 Nordeste 0 -- -- 99
2020-11-05 22:00:00 9.4 24 Este 39 Este 1.4 -- -- 99
2020-11-05 21:00:00 9.6 17 Este 34 Este 0.2 -- -- 98
2020-11-05 20:00:00 9.6 22 Este 37 Este 1.2 -- -- 97
2020-11-05 19:00:00 9.8 23 Nordeste 34 Este 0 -- -- 95
2020-11-05 18:00:00 10.1 24 Nordeste 39 Este 0.2 -- -- 93
2020-11-05 17:00:00 11 26 Nordeste 39 Este 0 -- -- 85
2020-11-05 16:00:00 11 26 Nordeste 40 Nordeste 0 -- -- 84
2020-11-05 15:00:00 10.9 25 Nordeste 38 Nordeste 0 -- -- 86
2020-11-05 14:00:00 10.1 28 Nordeste 41 Nordeste 0 -- -- 87
2020-11-05 13:00:00 9 24 Nordeste 44 Nordeste 0 -- -- 91
2020-11-05 12:00:00 8.1 32 Nordeste 48 Nordeste 0 -- -- 93
2020-11-05 11:00:00 7.2 27 Nordeste 51 Nordeste 0.2 -- -- 96
2020-11-05 10:00:00 6.6 32 Nordeste 50 Nordeste 0.4 -- -- 96
2020-11-05 09:00:00 6.8 31 Nordeste 53 Nordeste 0 -- -- 91
2020-11-05 08:00:00 6.4 32 Nordeste 54 Nordeste 0 -- -- 91
2020-11-05 07:00:00 6.3 33 Nordeste 49 Nordeste 0 -- -- 92
2020-11-05 06:00:00 6 33 Nordeste 53 Nordeste 0 -- -- 91
2020-11-05 05:00:00 5.9 35 Nordeste 55 Nordeste 0 -- -- 89
2020-11-05 04:00:00 5.4 31 Nordeste 52 Nordeste 0 -- -- 89
2020-11-05 03:00:00 5.2 36 Nordeste 56 Nordeste 0 -- -- 88
2020-11-05 02:00:00 5 33 Nordeste 50 Nordeste 0 -- -- 87
2020-11-05 01:00:00 5.1 36 Nordeste 57 Nordeste 0 -- -- 84
2020-11-05 00:00:00 5.3 38 Nordeste 54 Nordeste 0 -- -- 85
2020-11-04 23:00:00 5.1 34 Nordeste 58 Nordeste 0 -- -- 85
2020-11-04 22:00:00 4.9 40 Nordeste 57 Nordeste 0 -- -- 86
2020-11-04 21:00:00 4.8 37 Nordeste 56 Nordeste 0 -- -- 86
2020-11-04 20:00:00 4.9 34 Nordeste 64 Nordeste 0.2 -- -- 89
2020-11-04 19:00:00 6.5 41 Nordeste 67 Nordeste 0 -- -- 76
2020-11-04 18:00:00 7.2 40 Nordeste 60 Este 0 -- -- 67
2020-11-04 17:00:00 7.9 39 Nordeste 58 Nordeste 0 -- -- 66
2020-11-04 16:00:00 9.1 36 Nordeste 57 Este 0 -- -- 63
2020-11-04 15:00:00 9 36 Nordeste 55 Nordeste 0 -- -- 62
2020-11-04 14:00:00 8.3 34 Nordeste 53 Nordeste 0 -- -- 69
2020-11-04 13:00:00 7.7 35 Nordeste 50 Este 0 -- -- 67
2020-11-04 12:00:00 8.2 23 Nordeste 43 Nordeste 0 -- -- 67
2020-11-04 11:00:00 5.2 22 Nordeste 34 Nordeste 0 -- -- 81
2020-11-04 10:00:00 5 19 Nordeste 29 Nordeste 0 -- -- 82
2020-11-04 09:00:00 4.2 16 Nordeste 24 Este 0 -- -- 87
2020-11-04 08:00:00 3.9 18 Nordeste 27 Nordeste 0 -- -- 87
2020-11-04 07:00:00 3.9 18 Nordeste 34 Nordeste 0 -- -- 85
2020-11-04 06:00:00 4.1 16 Nordeste 23 Nordeste 0 -- -- 85
2020-11-04 05:00:00 4.1 13 Nordeste 21 Nordeste 0 -- -- 91
2020-11-04 04:00:00 3.7 14 Nordeste 18 Nordeste 0 -- -- 92
2020-11-04 03:00:00 2.8 12 Nordeste 18 Nordeste 0 -- -- 93
2020-11-04 02:00:00 2.8 15 Nordeste 19 Nordeste 0 -- -- 90
2020-11-04 01:00:00 3.7 16 Nordeste 23 Nordeste 0 -- -- 84
2020-11-04 00:00:00 4.3 15 Nordeste 21 Nordeste 0 -- -- 81
2020-11-03 23:00:00 4.7 13 Nordeste 18 Nordeste 0 -- -- 81
2020-11-03 22:00:00 5.5 15 Nordeste 24 Nordeste 0 -- -- 77
2020-11-03 21:00:00 6.8 19 Nordeste 30 Nordeste 0 -- -- 70
2020-11-03 20:00:00 7.4 13 Nordeste 26 Nordeste 0 -- -- 72
2020-11-03 19:00:00 8.7 12 Nordeste 22 Nordeste 0 -- -- 68
2020-11-03 18:00:00 11.9 17 Norte 31 Norte 0 -- -- 57
2020-11-03 17:00:00 14.2 20 Nordeste 34 Norte 0 -- -- 52
2020-11-03 16:00:00 15.4 20 Norte 34 Norte 0 -- -- 50
2020-11-03 15:00:00 15.7 18 Nordeste 35 Nordeste 0 -- -- 48
2020-11-03 14:00:00 14.9 18 Nordeste 38 Nordeste 0 -- -- 52
2020-11-03 13:00:00 14.1 23 Nordeste 34 Este 0 -- -- 52
2020-11-03 12:00:00 13.7 19 Nordeste 33 Norte 0 -- -- 55
2020-11-03 11:00:00 12.9 19 Norte 35 Norte 0 -- -- 54
2020-11-03 10:00:00 10.1 14 Nordeste 20 Nordeste 0 -- -- 63
2020-11-03 09:00:00 7 9 Nordeste 13 Nordeste 0 -- -- 76
2020-11-03 08:00:00 3.6 9 Nordeste 10 Nordeste 0 -- -- 92
2020-11-03 07:00:00 4.1 8 Norte 13 Nordeste 0 -- -- 93
2020-11-03 06:00:00 7 6 Nordeste 10 Nordeste 0 -- -- 100
2020-11-03 05:00:00 8.3 3 Nordeste 7 Sudoeste 0 -- -- 100
2020-11-03 04:00:00 8.2 8 Sudoeste 10 Oeste 0 -- -- 100
2020-11-03 03:00:00 9.4 3 Sudoeste 10 Sur 0 -- -- 100
2020-11-03 02:00:00 9.9 5 Sudoeste 13 Sudoeste 0 -- -- 100
2020-11-03 01:00:00 10.8 8 Sudoeste 24 Sudoeste 0 -- -- 99
2020-11-03 00:00:00 11.8 8 Sudoeste 17 Sudoeste 0 -- -- 98
2020-11-02 23:00:00 12.6 12 Sudoeste 17 Oeste 0 -- -- 93
2020-11-02 22:00:00 13.5 10 Sudoeste 26 Oeste 0 -- -- 93
2020-11-02 21:00:00 14.3 14 Oeste 22 Oeste 0 -- -- 97
2020-11-02 20:00:00 14.3 10 Sudoeste 20 Oeste 0 -- -- 96
2020-11-02 19:00:00 14.7 16 Oeste 23 Sudoeste 0 -- -- 92
2020-11-02 18:00:00 15.6 11 Sudoeste 22 Sudoeste 0 -- -- 85
2020-11-02 17:00:00 16.5 14 Sudoeste 25 Sudoeste 0 -- -- 79
2020-11-02 16:00:00 17.3 14 Sudoeste 25 Sudoeste 0 -- -- 77
2020-11-02 15:00:00 16.7 15 Sudoeste 24 Sudoeste 0 -- -- 79
2020-11-02 14:00:00 16.9 12 Sudoeste 24 Oeste 0 -- -- 80
2020-11-02 13:00:00 16 16 Sudoeste 23 Sur 0 -- -- 79
2020-11-02 12:00:00 15.6 13 Sudoeste 27 Sudoeste 0 -- -- 86
2020-11-02 11:00:00 14.1 10 Sudoeste 19 Sudoeste 0 -- -- 95
2020-11-02 10:00:00 13.7 11 Sudoeste 22 Sudoeste 0 -- -- 97
2020-11-02 09:00:00 12.6 13 Sudoeste 20 Sudoeste 0 -- -- 100
2020-11-02 08:00:00 12.5 13 Sudoeste 25 Sudoeste 0 -- -- 100
2020-11-02 07:00:00 12.4 15 Sudoeste 24 Sur 0 -- -- 100
2020-11-02 06:00:00 12.4 14 Sudoeste 28 Sur 0 -- -- 100
2020-11-02 05:00:00 12.4 16 Sudoeste 24 Sur 0 -- -- 100
2020-11-02 04:00:00 12.3 16 Sudoeste 26 Sudoeste 0 -- -- 100
2020-11-02 03:00:00 12.8 15 Sudoeste 26 Sudoeste 0 -- -- 100
2020-11-02 02:00:00 12.8 14 Sudoeste 20 Sudoeste 0 -- -- 100
2020-11-02 01:00:00 13 13 Sudoeste 20 Sudoeste 0 -- -- 100
2020-11-02 00:00:00 13.2 13 Sudoeste 21 Sudoeste 0 -- -- 100
2020-11-01 23:00:00 13.3 14 Sudoeste 22 Sudoeste 0 -- -- 99
2020-11-01 22:00:00 13.3 14 Sudoeste 22 Sudoeste 0 -- -- 98
2020-11-01 21:00:00 13.4 9 Sudoeste 16 Sudoeste 0 -- -- 97
2020-11-01 20:00:00 13.7 8 Sudoeste 15 Sudoeste 0 -- -- 96
2020-11-01 19:00:00 13.8 9 Sudoeste 16 Sudoeste 0 -- -- 95
2020-11-01 18:00:00 14 9 Sudoeste 17 Sudoeste 0 -- -- 93
2020-11-01 17:00:00 14.9 12 Sudoeste 19 Sudoeste 0 -- -- 89
2020-11-01 16:00:00 15.2 12 Sudoeste 20 Sudoeste 0 -- -- 88
2020-11-01 15:00:00 14.7 11 Sudoeste 17 Sudoeste 0 -- -- 90
2020-11-01 14:00:00 13.9 12 Sudoeste 18 Sudoeste 0 -- -- 93
2020-11-01 13:00:00 13.3 13 Sudoeste 21 Sudoeste 0 -- -- 99
2020-11-01 12:00:00 12.3 11 Sudoeste 16 Sudoeste 0 -- -- 100
2020-11-01 11:00:00 11.6 5 Sudoeste 9 Sudoeste 0 -- -- 100
2020-11-01 10:00:00 11 6 Sur 9 Sur 0 -- -- 100
2020-11-01 09:00:00 10.6 6 Sur 12 Sur 0 -- -- 100
2020-11-01 08:00:00 10.9 6 Sur 15 Sudoeste 0 -- -- 100
2020-11-01 07:00:00 11.2 10 Sudoeste 13 Sudoeste 0 -- -- 100
2020-11-01 06:00:00 11.2 7 Sudoeste 16 Sudoeste 0 -- -- 100
2020-11-01 05:00:00 10.9 11 Sudoeste 15 Sudoeste 0 -- -- 100
2020-11-01 04:00:00 11 10 Sudoeste 14 Sudoeste 0 -- -- 100
2020-11-01 03:00:00 10.3 9 Sudoeste 12 Sudoeste 0 -- -- 100
2020-11-01 02:00:00 10.1 10 Sur 12 Sur 0 -- -- 99
2020-11-01 01:00:00 10.9 8 Oeste 14 Sudoeste 0 -- -- 95
2020-11-01 00:00:00 11.4 12 Sudoeste 16 Sudoeste 0 -- -- 95
2020-10-31 23:00:00 11.6 8 Sudoeste 10 Oeste 0 -- -- 93
2020-10-31 22:00:00 11.6 6 Sudoeste 9 Oeste 0 -- -- 94
2020-10-31 21:00:00 11.9 5 Oeste 7 Oeste 0 -- -- 97
2020-10-31 20:00:00 11.3 4 Sudoeste 7 Sudeste 0 -- -- 97
2020-10-31 19:00:00 12.5 5 Oeste 14 Sudoeste 0 -- -- 89
2020-10-31 18:00:00 15.5 11 Sudoeste 22 Sudoeste 0 -- -- 79
2020-10-31 17:00:00 16 16 Oeste 28 Sudoeste 0 -- -- 76
2020-10-31 16:00:00 17.8 16 Sudoeste 25 Sudoeste 0 -- -- 69
2020-10-31 15:00:00 16.6 16 Oeste 30 Oeste 0 -- -- 73
2020-10-31 14:00:00 16.4 19 Sudoeste 32 Sudoeste 0 -- -- 76
2020-10-31 13:00:00 15.9 14 Sudoeste 24 Sudoeste 0 -- -- 81
2020-10-31 12:00:00 13.9 9 Sur 13 Sudoeste 0 -- -- 89
2020-10-31 11:00:00 12.5 6 Sur 13 Sur 0 -- -- 95
2020-10-31 10:00:00 12.4 6 Sudoeste 8 Sudoeste 0 -- -- 94
2020-10-31 09:00:00 8.4 4 Sur 8 Noroeste 0 -- -- 100
2020-10-31 08:00:00 6.8 7 Sudeste 8 Sudeste 0 -- -- 100
2020-10-31 07:00:00 7.3 6 Noroeste 8 Noroeste 0 -- -- 100
2020-10-31 06:00:00 8.2 4 Oeste 5 Sur 0 -- -- 99
2020-10-31 05:00:00 8.8 5 Sudoeste 6 Sudoeste 0 -- -- 100
2020-10-31 04:00:00 9.1 4 Sudoeste 6 Sudoeste 0 -- -- 100
2020-10-31 03:00:00 8.7 5 Oeste 8 Oeste 0 -- -- 100
2020-10-31 02:00:00 10.1 5 Sudoeste 7 Sur 0 -- -- 97
2020-10-31 01:00:00 9.3 3 Nordeste 6 Este 0 -- -- 99
2020-10-31 00:00:00 8.9 4 Nordeste 6 Nordeste 0 -- -- 99
2020-10-30 23:00:00 9.9 3 Nordeste 6 Nordeste 0 -- -- 96
2020-10-30 22:00:00 10.8 6 Este 12 Sudeste 0 -- -- 92
2020-10-30 21:00:00 11.6 9 Sudeste 12 Sudeste 0 -- -- 88
2020-10-30 20:00:00 13.1 3 Sudeste 11 Este 0 -- -- 84
2020-10-30 19:00:00 13.7 5 Noroeste 7 Oeste 0 -- -- 81
2020-10-30 18:00:00 18.2 5 Oeste 15 Sudoeste 0 -- -- 63
2020-10-30 17:00:00 19.4 13 Sudoeste 24 Sudoeste 0 -- -- 56
2020-10-30 16:00:00 19.4 12 Sudoeste 23 Sur 0 -- -- 56
2020-10-30 15:00:00 18.8 11 Sudoeste 23 Sur 0 -- -- 61
2020-10-30 14:00:00 18.9 9 Sur 17 Sur 0 -- -- 62
2020-10-30 13:00:00 18.2 8 Sudeste 17 Sudeste 0 -- -- 63
2020-10-30 12:00:00 16.7 8 Este 14 Este 0 -- -- 69
2020-10-30 11:00:00 14.3 8 Este 15 Este 0 -- -- 75
2020-10-30 10:00:00 9.4 7 Nordeste 14 Nordeste 0 -- -- 94
2020-10-30 09:00:00 8.4 8 Este 15 Nordeste 0 -- -- 96
2020-10-30 08:00:00 7.4 7 Este 19 Nordeste 0 -- -- 99
2020-10-30 07:00:00 7.7 12 Nordeste 17 Este 0 -- -- 98
2020-10-30 06:00:00 7.6 6 Este 14 Este 0 -- -- 98
2020-10-30 05:00:00 7.9 6 Este 13 Este 0 -- -- 97
2020-10-30 04:00:00 7.3 6 Nordeste 10 Nordeste 0 -- -- 97
2020-10-30 03:00:00 7 4 Este 12 Nordeste 0 -- -- 99
2020-10-30 02:00:00 7.4 5 Nordeste 12 Este 0 -- -- 98
2020-10-30 01:00:00 7.4 9 Este 14 Este 0 -- -- 100
2020-10-30 00:00:00 5.5 5 Nordeste 9 Nordeste 0 -- -- 100
2020-10-29 23:00:00 5.9 9 Nordeste 10 Nordeste 0 -- -- 100
2020-10-29 22:00:00 6.1 8 Nordeste 9 Nordeste 0 -- -- 99
2020-10-29 21:00:00 6.6 7 Nordeste 10 Nordeste 0 -- -- 97
2020-10-29 20:00:00 7.8 4 Norte 9 Norte 0 -- -- 93
2020-10-29 19:00:00 9.4 5 Noroeste 6 Noroeste 0 -- -- 88
2020-10-29 18:00:00 14.1 4 Noroeste 8 Sudoeste 0 -- -- 68
2020-10-29 17:00:00 14.4 5 Sudeste 14 Sur 0 -- -- 67
2020-10-29 16:00:00 14.5 5 Sur 16 Nordeste 0 -- -- 65
2020-10-29 15:00:00 12.6 6 Este 16 Sudeste 0 -- -- 73
2020-10-29 14:00:00 14.5 7 Sur 15 Sudeste 0 -- -- 68
2020-10-29 13:00:00 10.9 6 Sudeste 13 Este 0 -- -- 81
2020-10-29 12:00:00 9.9 3 Nordeste 8 Este 0 -- -- 99
2020-10-29 11:00:00 8 4 Nordeste 8 Nordeste 0 -- -- 100
2020-10-29 10:00:00 5.8 4 Nordeste 8 Nordeste 0 -- -- 100
2020-10-29 09:00:00 4.4 4 Norte 6 Nordeste 0 -- -- 100
2020-10-29 08:00:00 4.1 0 Calma 9 Sudeste 0 -- -- 100
2020-10-29 07:00:00 2.4 5 Este 7 Nordeste 0 -- -- 100
2020-10-29 06:00:00 3.3 3 Nordeste 5 Este 0 -- -- 100
2020-10-29 05:00:00 5.7 0 Calma 2 Sudoeste 0 -- -- 100
2020-10-29 04:00:00 4.9 2 Oeste 4 Sur 0 -- -- 100
2020-10-29 03:00:00 5.7 2 Sur 5 Sur 0 -- -- 100
2020-10-29 02:00:00 5.7 2 Oeste 7 Sur 0 -- -- 100
2020-10-29 01:00:00 7.3 6 Sudoeste 8 Sudoeste 0 -- -- 98
2020-10-29 00:00:00 6.9 6 Sudoeste 9 Sudoeste 0 -- -- 94
2020-10-28 23:00:00 7.2 3 Sudoeste 8 Oeste 0 -- -- 99
2020-10-28 22:00:00 8.4 8 Sudoeste 11 Oeste 0 -- -- 94
2020-10-28 21:00:00 8.2 5 Sudoeste 9 Sur 0 -- -- 95
2020-10-28 20:00:00 8.7 5 Sudoeste 8 Sudoeste 0 -- -- 93
2020-10-28 19:00:00 9.6 4 Sudoeste 19 Sudoeste 0 -- -- 88
2020-10-28 18:00:00 12.5 14 Oeste 24 Sudoeste 0 -- -- 74
2020-10-28 17:00:00 13.6 21 Sudoeste 29 Oeste 0 -- -- 71
2020-10-28 16:00:00 14.2 16 Oeste 35 Oeste 0 -- -- 70
2020-10-28 15:00:00 13.6 18 Oeste 32 Sudoeste 0 -- -- 76
2020-10-28 14:00:00 14.6 17 Sudoeste 28 Sudoeste 0 -- -- 74
2020-10-28 13:00:00 13.4 14 Sudoeste 22 Sudoeste 0 -- -- 87
2020-10-28 12:00:00 11.4 9 Oeste 19 Oeste 0.2 -- -- 98
2020-10-28 11:00:00 11.2 12 Sudoeste 18 Sudoeste 0 -- -- 100
2020-10-28 10:00:00 10.7 10 Sudoeste 17 Sudoeste 0 -- -- 100
2020-10-28 09:00:00 10.5 11 Sudoeste 19 Sudoeste 0 -- -- 100
2020-10-28 08:00:00 10.4 12 Sudoeste 25 Sudoeste 0 -- -- 100
2020-10-28 07:00:00 10.5 16 Sudoeste 23 Sudoeste 0 -- -- 100
2020-10-28 06:00:00 10.5 12 Sudoeste 21 Sudoeste 0.2 -- -- 100
2020-10-28 05:00:00 10.7 10 Oeste 27 Sudoeste 0.2 -- -- 100
2020-10-28 04:00:00 10.7 16 Sudoeste 31 Sudoeste 0 -- -- 100
2020-10-28 03:00:00 10.6 18 Sudoeste 29 Sudoeste 0.2 -- -- 100
2020-10-28 02:00:00 10.3 15 Sudoeste 27 Sudoeste 0.2 -- -- 100
2020-10-28 01:00:00 10.2 18 Sudoeste 31 Sudoeste 0.4 -- -- 100
2020-10-28 00:00:00 10.1 17 Sudoeste 31 Sur 0.2 -- -- 100